createdAt,value
2017-12-20T00:02:24.963Z,14.60
2017-12-20T00:07:28.252Z,13.30
2017-12-20T00:12:31.293Z,14.20
2017-12-20T00:17:34.841Z,12.70
2017-12-20T00:22:37.692Z,12.70
2017-12-20T00:27:40.505Z,11.90
2017-12-20T00:32:43.977Z,12.00
2017-12-20T00:37:46.824Z,11.43
2017-12-20T00:42:50.183Z,13.70
2017-12-20T00:47:54.479Z,12.33
2017-12-20T00:52:57.450Z,13.30
2017-12-20T00:58:00.321Z,12.73
2017-12-20T01:03:03.083Z,13.30
2017-12-20T01:08:06.015Z,12.60
2017-12-20T01:13:08.901Z,12.43
2017-12-20T01:18:11.706Z,12.00
2017-12-20T01:23:14.902Z,10.30
2017-12-20T01:28:19.020Z,12.50
2017-12-20T01:33:21.879Z,11.33
2017-12-20T01:38:24.632Z,11.80
2017-12-20T01:43:27.520Z,11.10
2017-12-20T01:48:30.553Z,9.77
2017-12-20T01:53:35.131Z,11.27
2017-12-20T01:58:38.221Z,11.00
2017-12-20T02:08:50.118Z,10.20
2017-12-20T02:13:53.901Z,10.50
2017-12-20T02:18:56.608Z,10.27
2017-12-20T02:24:00.082Z,9.90
2017-12-20T02:29:02.996Z,9.80
2017-12-20T02:34:06.469Z,8.50
2017-12-20T02:39:09.840Z,10.00
2017-12-20T02:44:14.069Z,9.23
2017-12-20T02:49:16.835Z,9.00
2017-12-20T02:54:19.637Z,7.90
2017-12-20T02:59:22.963Z,9.90
2017-12-20T03:04:25.676Z,8.70
2017-12-20T03:09:28.469Z,8.70
2017-12-20T03:14:31.653Z,7.50
2017-12-20T03:19:34.521Z,11.00
2017-12-20T03:24:37.700Z,9.20
2017-12-20T03:29:40.910Z,9.07
2017-12-20T03:34:45.257Z,9.07
2017-12-20T03:39:48.291Z,10.53
2017-12-20T03:44:51.209Z,8.80
2017-12-20T03:49:54.781Z,8.90
2017-12-20T03:54:57.599Z,10.70
2017-12-20T04:00:00.880Z,9.47
2017-12-20T04:05:04.600Z,9.00
2017-12-20T04:10:07.509Z,9.20
2017-12-20T04:15:12.696Z,9.07
2017-12-20T04:20:15.600Z,9.23
2017-12-20T04:25:18.985Z,8.87
2017-12-20T04:30:21.772Z,9.00
2017-12-20T04:35:24.785Z,9.70
2017-12-20T04:40:27.645Z,9.70
2017-12-20T04:45:30.945Z,9.80
2017-12-20T04:50:33.984Z,10.87
2017-12-20T04:55:36.937Z,10.17
2017-12-20T05:00:39.816Z,10.77
2017-12-20T05:05:42.761Z,10.17
2017-12-20T05:10:45.655Z,9.40
2017-12-20T05:15:49.378Z,9.73
2017-12-20T05:20:52.719Z,9.73
2017-12-20T05:25:56.039Z,8.67
2017-12-20T05:30:59.358Z,9.23
2017-12-20T05:36:02.655Z,9.10
2017-12-20T05:41:05.193Z,9.37
2017-12-20T05:46:07.731Z,8.80
2017-12-20T05:51:10.266Z,11.53
2017-12-20T05:56:13.574Z,9.80
2017-12-20T06:01:16.129Z,12.70
2017-12-20T06:06:19.475Z,11.33
2017-12-20T06:11:22.028Z,11.83
2017-12-20T06:16:24.570Z,11.10
2017-12-20T06:21:27.117Z,10.97
2017-12-20T06:26:29.663Z,13.17
2017-12-20T06:31:32.216Z,15.20
2017-12-20T06:36:34.771Z,12.47
2017-12-20T06:41:37.306Z,12.63
2017-12-20T06:46:39.859Z,11.07
2017-12-20T06:51:42.394Z,13.27
2017-12-20T06:56:45.702Z,14.07
2017-12-20T07:01:48.242Z,15.70
2017-12-20T07:06:50.788Z,14.00
2017-12-20T07:11:53.326Z,13.97
2017-12-20T07:16:55.863Z,14.80
2017-12-20T07:21:58.419Z,16.10
2017-12-20T07:27:01.143Z,13.80
2017-12-20T07:32:04.471Z,16.03
2017-12-20T07:37:07.015Z,16.60
2017-12-20T07:42:09.579Z,16.70
2017-12-20T07:47:12.118Z,15.97
2017-12-20T07:52:14.671Z,15.33
2017-12-20T07:57:17.215Z,15.00
2017-12-20T08:02:19.754Z,15.77
2017-12-20T08:07:22.314Z,16.60
2017-12-20T08:12:24.852Z,15.37
2017-12-20T08:17:27.411Z,14.73
2017-12-20T08:22:29.954Z,14.03
2017-12-20T08:27:32.503Z,16.30
2017-12-20T08:32:35.827Z,14.97
2017-12-20T08:37:38.366Z,16.23
2017-12-20T08:42:40.928Z,14.90
2017-12-20T08:47:43.503Z,14.87
2017-12-20T08:52:46.048Z,15.53
2017-12-20T08:57:48.607Z,14.40
2017-12-20T09:02:51.154Z,15.70
2017-12-20T09:07:53.693Z,15.50
2017-12-20T09:12:56.238Z,15.77
2017-12-20T09:17:58.787Z,16.97
2017-12-20T09:23:01.326Z,16.10
2017-12-20T09:28:03.870Z,14.47
2017-12-20T09:33:06.422Z,16.40
2017-12-20T09:38:08.967Z,17.10
2017-12-20T09:43:11.523Z,14.70
2017-12-20T09:48:14.826Z,14.93
2017-12-20T09:53:17.387Z,15.47
2017-12-20T09:58:19.931Z,13.97
2017-12-20T10:03:22.458Z,15.70
2017-12-20T10:08:25.012Z,14.90
2017-12-20T10:13:28.329Z,16.47
2017-12-20T10:18:31.644Z,15.33
2017-12-20T10:23:34.947Z,14.20
2017-12-20T10:28:38.271Z,16.17
2017-12-20T10:33:40.811Z,16.00
2017-12-20T10:38:43.371Z,15.67
2017-12-20T10:43:46.685Z,14.97
2017-12-20T10:48:50.002Z,14.30
2017-12-20T10:53:52.561Z,11.70
2017-12-20T10:58:55.118Z,11.50
2017-12-20T11:03:57.698Z,12.80
2017-12-20T11:09:00.255Z,10.60
2017-12-20T11:14:02.795Z,12.10
2017-12-20T11:19:05.362Z,12.43
2017-12-20T11:24:07.910Z,13.47
2017-12-20T11:29:10.460Z,12.90
2017-12-20T11:34:13.011Z,12.90
2017-12-20T11:39:15.577Z,14.90
2017-12-20T11:44:18.127Z,12.33
2017-12-20T11:49:20.681Z,11.30
2017-12-20T11:54:23.990Z,13.10
2017-12-20T11:59:26.576Z,11.90
2017-12-20T12:04:29.115Z,12.30
2017-12-20T12:09:31.662Z,12.37
2017-12-20T12:14:34.203Z,10.80
2017-12-20T12:19:36.754Z,12.67
2017-12-20T12:24:39.383Z,10.60
2017-12-20T12:29:41.914Z,10.20
2017-12-20T12:34:44.477Z,10.33
2017-12-20T12:39:47.051Z,11.90
2017-12-20T12:44:49.594Z,11.30
2017-12-20T12:49:52.147Z,11.50
2017-12-20T12:54:54.688Z,11.00
2017-12-20T12:59:57.226Z,11.03
2017-12-20T13:04:59.780Z,11.30
2017-12-20T13:10:03.106Z,11.47
2017-12-20T13:15:05.674Z,10.90
2017-12-20T13:20:08.982Z,11.50
2017-12-20T13:25:11.534Z,12.70
2017-12-20T13:30:14.097Z,11.00
2017-12-20T13:35:16.655Z,12.40
2017-12-20T13:40:19.207Z,13.50
2017-12-20T13:45:21.762Z,12.70
2017-12-20T13:50:24.331Z,13.20
2017-12-20T13:55:26.898Z,12.87
2017-12-20T14:00:29.431Z,12.50
2017-12-20T14:05:31.978Z,15.43
2017-12-20T14:10:34.566Z,12.07
2017-12-20T14:15:37.120Z,11.67
2017-12-20T14:20:39.672Z,12.30
2017-12-20T14:25:42.215Z,12.47
2017-12-20T14:30:44.762Z,13.70
2017-12-20T14:40:59.170Z,12.40
2017-12-20T14:46:03.355Z,14.43
2017-12-20T14:51:06.760Z,12.30
2017-12-20T14:56:11.287Z,14.37
2017-12-20T15:01:19.592Z,12.77
2017-12-20T15:06:23.769Z,14.07
2017-12-20T15:11:27.060Z,14.50
2017-12-20T15:16:30.339Z,12.57
2017-12-20T15:21:35.333Z,14.77
2017-12-20T15:26:38.426Z,22.00
2017-12-20T15:31:41.188Z,22.63
2017-12-20T15:36:49.076Z,22.17
2017-12-20T15:47:35.810Z,20.30
2017-12-20T15:52:50.391Z,23.07
2017-12-20T15:57:55.033Z,25.20
2017-12-20T16:03:04.988Z,27.27
2017-12-20T16:08:10.055Z,24.63
2017-12-20T16:13:21.937Z,22.60
2017-12-20T16:18:27.939Z,25.23
2017-12-20T16:23:33.719Z,28.37
2017-12-20T16:28:37.800Z,23.10
2017-12-20T16:33:41.582Z,28.00
2017-12-20T16:38:47.701Z,26.40
2017-12-20T16:43:50.306Z,25.63
2017-12-20T16:48:52.846Z,24.40
2017-12-20T16:53:55.401Z,28.27
2017-12-20T16:58:57.981Z,29.67
2017-12-20T17:04:00.531Z,28.97
2017-12-20T17:09:03.095Z,24.53
2017-12-20T17:14:05.667Z,26.50
2017-12-20T17:19:08.190Z,24.37
2017-12-20T17:24:10.734Z,28.57
2017-12-20T17:29:13.301Z,29.43
2017-12-20T17:34:16.626Z,30.63
2017-12-20T17:39:19.179Z,30.13
2017-12-20T17:44:22.499Z,29.40
2017-12-20T17:49:25.046Z,31.10
2017-12-20T17:54:27.605Z,30.23
2017-12-20T17:59:30.162Z,32.57
2017-12-20T18:04:32.714Z,28.13
2017-12-20T18:09:35.281Z,26.57
2017-12-20T18:14:37.836Z,28.03
2017-12-20T18:19:40.388Z,28.57
2017-12-20T18:24:43.752Z,24.40
2017-12-20T18:29:46.294Z,24.07
2017-12-20T18:34:49.620Z,24.60
2017-12-20T18:39:52.931Z,25.73
2017-12-20T18:44:56.258Z,25.70
2017-12-20T18:49:59.587Z,25.50
2017-12-20T18:55:02.127Z,25.57
2017-12-20T19:00:04.663Z,23.20
2017-12-20T19:05:07.206Z,27.03
2017-12-20T19:10:13.027Z,26.10
2017-12-20T19:15:16.354Z,27.20
2017-12-20T19:20:18.907Z,25.00
2017-12-20T19:25:21.471Z,26.73
2017-12-20T19:30:24.031Z,27.00
2017-12-20T19:35:26.572Z,24.87
2017-12-20T19:40:29.123Z,26.77
2017-12-20T19:45:31.674Z,23.93
2017-12-20T19:50:34.231Z,22.13
2017-12-20T19:55:37.546Z,27.10
2017-12-20T20:00:40.086Z,24.77
2017-12-20T20:05:42.656Z,24.40
2017-12-20T20:10:45.956Z,25.17
2017-12-20T20:15:48.515Z,26.10
2017-12-20T20:20:51.068Z,26.40
2017-12-20T20:25:54.390Z,21.63
2017-12-20T20:30:57.727Z,26.80
2017-12-20T20:36:00.266Z,23.07
2017-12-20T20:41:02.831Z,20.43
2017-12-20T20:46:05.421Z,26.27
2017-12-20T20:51:07.986Z,24.80
2017-12-20T20:56:10.536Z,25.90
2017-12-20T21:01:13.119Z,24.10
2017-12-20T21:06:15.714Z,21.37
2017-12-20T21:11:18.211Z,21.70
2017-12-20T21:16:20.759Z,22.53
2017-12-20T21:21:23.305Z,22.00
2017-12-20T21:26:25.855Z,23.87
2017-12-20T21:31:28.407Z,25.10
2017-12-20T21:36:30.959Z,21.70
2017-12-20T21:41:33.506Z,21.90
2017-12-20T21:46:36.047Z,22.37
2017-12-20T21:51:38.599Z,26.63
2017-12-20T21:56:41.183Z,26.53
2017-12-20T22:01:43.740Z,24.63
2017-12-20T22:06:46.298Z,23.90
2017-12-20T22:11:48.846Z,27.83
2017-12-20T22:16:51.395Z,26.20
2017-12-20T22:21:53.938Z,22.83
2017-12-20T22:26:56.478Z,24.27
2017-12-20T22:31:59.791Z,24.07
2017-12-20T22:37:02.330Z,20.87
2017-12-20T22:42:05.643Z,16.50
2017-12-20T22:47:08.194Z,18.00
2017-12-20T22:52:11.510Z,20.90
2017-12-20T22:57:14.831Z,20.10
2017-12-20T23:02:18.130Z,19.97
2017-12-20T23:07:20.690Z,19.17
2017-12-20T23:12:23.282Z,19.80
2017-12-20T23:17:25.842Z,21.90
2017-12-20T23:22:29.154Z,19.47
2017-12-20T23:27:32.475Z,16.77
2017-12-20T23:32:35.771Z,14.97
2017-12-20T23:37:38.358Z,16.87
2017-12-20T23:42:40.902Z,15.07
2017-12-20T23:47:44.202Z,12.70
2017-12-20T23:52:46.741Z,11.57
2017-12-20T23:57:49.279Z,15.00
